Time;durP1;ratioP1;P1;durP2;ratioP2;P2;SDS_P1;SDS_P2;PMS_P1;PMS_P2;Temp;Humidity;BMP_temperature;BMP_pressure;BME280_temperature;BME280_humidity;BME280_pressure;Samples;Min_cycle;Max_cycle;Signal;HPM_P1;HPM_P2
2023/05/17 00:01:28;;;;;;;12.50;4.00;;;10.50;76.50;;;;;;4955593;29;20211;-80
2023/05/17 00:03:55;;;;;;;14.23;4.97;;;10.40;78.20;;;;;;4955874;28;20181;-83
2023/05/17 00:06:27;;;;;;;12.77;4.87;;;10.30;85.90;;;;;;4949746;29;20204;-88
2023/05/17 00:08:53;;;;;;;12.10;4.70;;;10.40;84.00;;;;;;4946419;29;20169;-87
2023/05/17 00:11:22;;;;;;;12.73;5.27;;;10.50;83.40;;;;;;4959772;28;20229;-79
2023/05/17 00:13:47;;;;;;;11.83;4.33;;;10.50;81.80;;;;;;4963495;28;20173;-78
2023/05/17 00:16:13;;;;;;;13.90;4.83;;;10.50;81.40;;;;;;4961582;29;20189;-80
2023/05/17 00:18:39;;;;;;;11.63;4.43;;;10.50;81.50;;;;;;4961982;28;20244;-79
2023/05/17 00:21:04;;;;;;;8.80;4.20;;;10.50;80.90;;;;;;4963008;28;20149;-79
2023/05/17 00:23:30;;;;;;;9.77;4.87;;;10.70;79.10;;;;;;4959241;28;20165;-86
2023/05/17 00:25:56;;;;;;;9.83;4.83;;;10.60;75.60;;;;;;4958985;29;20209;-79
2023/05/17 00:28:21;;;;;;;15.70;5.13;;;10.60;75.10;;;;;;4958928;28;20582;-81
2023/05/17 00:30:47;;;;;;;10.60;4.73;;;10.50;79.60;;;;;;4955541;29;20185;-78
2023/05/17 00:33:17;;;;;;;13.80;5.30;;;10.50;81.10;;;;;;4956248;29;20180;-78
2023/05/17 00:35:46;;;;;;;12.17;5.20;;;10.60;76.20;;;;;;4958910;29;20234;-80
2023/05/17 00:38:14;;;;;;;13.17;5.63;;;10.70;70.70;;;;;;4959706;29;20145;-78
2023/05/17 00:40:55;;;;;;;14.47;5.30;;;10.60;69.60;;;;;;4958997;28;20189;-79
2023/05/17 00:43:31;;;;;;;11.70;5.03;;;10.50;74.70;;;;;;4960692;28;20264;-78
2023/05/17 00:45:57;;;;;;;13.90;5.40;;;10.50;76.70;;;;;;4959589;28;20207;-81
2023/05/17 00:48:24;;;;;;;12.20;5.50;;;10.50;79.40;;;;;;4959688;28;20181;-85
2023/05/17 00:50:52;;;;;;;14.37;6.43;;;10.30;82.10;;;;;;4953801;29;20181;-85
2023/05/17 00:53:18;;;;;;;13.87;5.67;;;10.30;87.30;;;;;;4953739;29;20185;-83
2023/05/17 00:55:47;;;;;;;12.53;5.40;;;10.20;90.60;;;;;;4954208;29;20169;-82
2023/05/17 00:58:16;;;;;;;11.93;4.80;;;10.30;93.00;;;;;;4952089;29;20189;-79
2023/05/17 01:00:42;;;;;;;14.10;5.20;;;10.20;93.10;;;;;;4954841;29;20263;-89
2023/05/17 01:03:23;;;;;;;11.43;5.67;;;10.20;92.90;;;;;;4950317;29;20189;-89
2023/05/17 01:05:52;;;;;;;9.90;4.93;;;10.10;95.10;;;;;;4944069;29;20223;-89
2023/05/17 01:08:18;;;;;;;16.77;5.83;;;10.10;97.10;;;;;;4946492;29;20173;-85
2023/05/17 01:11:26;;;;;;;14.23;5.93;;;10.10;98.50;;;;;;4945897;29;20172;-89
2023/05/17 01:13:55;;;;;;;11.87;5.53;;;9.90;99.30;;;;;;4946166;29;20157;-89
2023/05/17 01:16:45;;;;;;;11.93;6.27;;;9.80;99.90;;;;;;4943293;29;20243;-82
2023/05/17 01:19:48;;;;;;;13.90;5.87;;;9.80;99.90;;;;;;4946546;29;20169;-86
2023/05/17 01:22:31;;;;;;;12.40;6.13;;;9.90;99.90;;;;;;4947352;29;20177;-86
2023/05/17 01:25:23;;;;;;;10.60;6.37;;;9.90;99.90;;;;;;4949781;29;20204;-78
2023/05/17 01:27:54;;;;;;;14.90;6.10;;;9.90;99.90;;;;;;4952654;29;20656;-78
2023/05/17 01:30:21;;;;;;;17.63;6.53;;;9.90;99.90;;;;;;4955122;29;20183;-78
2023/05/17 01:33:06;;;;;;;15.40;7.00;;;9.90;99.90;;;;;;4948570;29;20604;-79
2023/05/17 01:35:59;;;;;;;18.90;6.37;;;9.90;99.90;;;;;;4946932;29;20193;-82
2023/05/17 01:38:34;;;;;;;17.60;6.90;;;10.00;99.90;;;;;;4939452;29;20157;-82
2023/05/17 01:41:05;;;;;;;13.10;7.00;;;10.00;99.90;;;;;;4940431;29;20622;-83
2023/05/17 01:44:01;;;;;;;13.23;6.70;;;10.20;99.90;;;;;;4940129;29;20161;-88
2023/05/17 01:46:39;;;;;;;18.40;5.93;;;10.20;99.90;;;;;;4939016;29;20197;-80
2023/05/17 01:49:23;;;;;;;15.50;6.13;;;10.20;99.90;;;;;;4930651;29;20268;-83
2023/05/17 01:52:07;;;;;;;17.97;6.17;;;10.20;99.90;;;;;;4943056;29;20188;-78
2023/05/17 01:55:12;;;;;;;11.43;6.10;;;10.20;99.00;;;;;;4941259;29;20188;-88
2023/05/17 01:57:41;;;;;;;14.53;5.90;;;10.30;99.40;;;;;;4943290;29;20181;-81
2023/05/17 02:00:09;;;;;;;15.70;6.90;;;10.20;98.20;;;;;;4941917;29;20607;-87
2023/05/17 02:02:35;;;;;;;12.20;5.93;;;10.30;98.70;;;;;;4940606;29;20208;-81
2023/05/17 02:05:01;;;;;;;16.47;6.37;;;10.30;98.90;;;;;;4941623;29;20251;-79
2023/05/17 02:07:27;;;;;;;13.70;6.27;;;10.30;98.80;;;;;;4941287;29;20173;-83
2023/05/17 02:09:53;;;;;;;14.53;6.07;;;10.50;98.40;;;;;;4942299;29;20176;-89
2023/05/17 02:12:19;;;;;;;13.17;6.20;;;10.60;96.30;;;;;;4944182;29;20212;-87
2023/05/17 02:14:44;;;;;;;17.17;6.07;;;10.60;94.40;;;;;;4938368;29;20169;-81
2023/05/17 02:17:10;;;;;;;13.53;6.30;;;10.80;93.00;;;;;;4937774;29;20173;-82
2023/05/17 02:19:36;;;;;;;15.23;5.80;;;10.90;90.40;;;;;;4936906;29;20208;-86
2023/05/17 02:22:01;;;;;;;16.73;6.43;;;10.90;85.10;;;;;;4937648;29;20188;-82
2023/05/17 02:24:27;;;;;;;17.43;6.23;;;11.00;84.10;;;;;;4944663;29;20257;-81
2023/05/17 02:26:53;;;;;;;15.17;7.50;;;10.80;75.60;;;;;;4944073;29;20216;-88
2023/05/17 02:29:19;;;;;;;14.20;6.23;;;10.80;77.30;;;;;;4939498;29;20239;-88
2023/05/17 02:31:45;;;;;;;11.23;6.20;;;10.80;76.00;;;;;;4937755;29;20261;-84
2023/05/17 02:34:12;;;;;;;14.90;6.50;;;10.80;73.90;;;;;;4935663;29;20188;-85
2023/05/17 02:36:39;;;;;;;13.50;7.17;;;10.60;72.70;;;;;;4937837;29;20177;-82
2023/05/17 02:39:05;;;;;;;16.97;7.00;;;10.70;76.30;;;;;;4936986;29;20169;-84
2023/05/17 02:41:31;;;;;;;15.57;6.30;;;10.50;74.30;;;;;;4941981;28;20173;-81
2023/05/17 02:43:57;;;;;;;12.67;6.10;;;10.50;79.20;;;;;;4960858;28;20153;-78
2023/05/17 02:46:22;;;;;;;14.33;6.50;;;10.60;80.30;;;;;;4955764;28;20227;-78
2023/05/17 02:48:48;;;;;;;15.77;6.87;;;10.80;77.30;;;;;;4947967;29;20197;-89
2023/05/17 02:51:25;;;;;;;12.80;6.63;;;10.80;74.90;;;;;;4937794;29;20192;-85
2023/05/17 02:53:51;;;;;;;13.67;6.70;;;10.60;75.40;;;;;;4938063;29;20181;-79
2023/05/17 02:56:16;;;;;;;13.50;6.57;;;10.70;77.30;;;;;;4937788;29;20177;-88
2023/05/17 02:58:42;;;;;;;13.63;6.63;;;10.60;77.90;;;;;;4937329;29;20605;-82
2023/05/17 03:01:08;;;;;;;16.53;7.33;;;10.70;76.10;;;;;;4947216;28;20203;-82
2023/05/17 03:03:34;;;;;;;18.83;6.83;;;10.80;74.30;;;;;;4959902;28;20233;-80
2023/05/17 03:06:01;;;;;;;14.03;6.13;;;10.60;72.50;;;;;;4953916;29;20204;-80
2023/05/17 03:08:26;;;;;;;14.13;6.70;;;10.70;73.70;;;;;;4948260;29;20165;-79
2023/05/17 03:10:58;;;;;;;16.63;6.73;;;10.60;73.20;;;;;;4939091;29;20180;-80
2023/05/17 03:13:24;;;;;;;12.47;6.90;;;10.50;77.50;;;;;;4937980;29;20169;-89
2023/05/17 03:15:50;;;;;;;13.17;7.63;;;10.60;74.60;;;;;;4937898;29;20595;-81
2023/05/17 03:18:15;;;;;;;15.77;7.47;;;10.60;75.40;;;;;;4937299;29;20173;-85
2023/05/17 03:20:41;;;;;;;18.33;7.17;;;10.80;70.60;;;;;;4937628;29;20176;-78
2023/05/17 03:23:07;;;;;;;18.10;7.20;;;10.80;66.10;;;;;;4938401;29;20157;-82
2023/05/17 03:25:32;;;;;;;19.67;7.87;;;10.70;67.50;;;;;;4944126;29;20193;-88
2023/05/17 03:27:58;;;;;;;14.47;7.77;;;10.80;64.60;;;;;;4945613;29;20184;-85
2023/05/17 03:30:27;;;;;;;17.50;8.00;;;10.90;62.40;;;;;;4945659;29;20182;-89
2023/05/17 03:32:53;;;;;;;15.97;7.87;;;11.00;57.80;;;;;;4945559;29;20309;-80
2023/05/17 03:35:19;;;;;;;16.10;8.00;;;11.00;55.10;;;;;;4944720;29;20181;-81
2023/05/17 03:37:48;;;;;;;16.80;8.07;;;11.00;54.90;;;;;;4936765;29;20176;-83
2023/05/17 03:40:14;;;;;;;18.60;7.40;;;10.80;57.90;;;;;;4937545;29;20244;-85
2023/05/17 03:42:40;;;;;;;15.27;7.57;;;10.70;67.20;;;;;;4937712;29;20197;-80
2023/05/17 03:45:07;;;;;;;18.00;7.67;;;10.90;67.80;;;;;;4938321;29;20205;-90
2023/05/17 03:47:33;;;;;;;15.97;7.50;;;10.80;64.80;;;;;;4939926;29;20272;-89
2023/05/17 03:49:58;;;;;;;11.60;7.20;;;10.80;63.10;;;;;;4940249;29;20214;-88
2023/05/17 03:52:24;;;;;;;19.03;8.27;;;10.90;59.40;;;;;;4946812;29;20541;-81
2023/05/17 03:54:51;;;;;;;14.70;7.73;;;11.00;57.20;;;;;;4950086;29;20164;-82
2023/05/17 03:57:18;;;;;;;15.07;8.17;;;10.90;55.10;;;;;;4953070;29;20173;-80
2023/05/17 03:59:47;;;;;;;19.90;8.47;;;10.80;55.00;;;;;;4948549;29;20246;-90
2023/05/17 04:02:15;;;;;;;15.80;8.43;;;10.80;59.30;;;;;;4941156;29;20197;-84
2023/05/17 04:04:51;;;;;;;17.67;8.00;;;10.60;62.30;;;;;;4939770;29;20173;-87
2023/05/17 04:07:17;;;;;;;18.70;8.70;;;10.80;61.70;;;;;;4940978;29;20172;-89
2023/05/17 04:09:44;;;;;;;14.50;7.83;;;10.80;58.00;;;;;;4940528;29;20177;-80
2023/05/17 04:12:10;;;;;;;17.67;8.63;;;10.80;59.10;;;;;;4940693;29;20181;-85
2023/05/17 04:14:39;;;;;;;16.47;8.00;;;10.80;57.00;;;;;;4939704;29;20261;-82
2023/05/17 04:17:08;;;;;;;22.37;9.23;;;10.40;60.10;;;;;;4943517;29;20183;-91
2023/05/17 04:19:33;;;;;;;16.57;8.33;;;10.30;70.80;;;;;;4940539;29;20177;-88
2023/05/17 04:22:00;;;;;;;18.10;7.97;;;10.40;75.70;;;;;;4940818;29;20187;-84
2023/05/17 04:24:26;;;;;;;14.00;7.67;;;10.50;74.10;;;;;;4940540;29;20271;-85
2023/05/17 04:26:52;;;;;;;16.73;7.73;;;10.40;73.00;;;;;;4938801;29;20736;-81
2023/05/17 04:29:17;;;;;;;13.07;7.80;;;10.40;77.20;;;;;;4938563;29;20177;-88
2023/05/17 04:31:43;;;;;;;20.90;8.23;;;10.60;78.50;;;;;;4938493;29;20317;-89
2023/05/17 04:34:10;;;;;;;16.47;7.93;;;10.50;78.30;;;;;;4940641;29;20185;-79
2023/05/17 04:36:45;;;;;;;16.27;8.67;;;10.60;77.90;;;;;;4939033;29;20219;-84
2023/05/17 04:39:11;;;;;;;14.80;7.73;;;10.60;72.20;;;;;;4939641;29;20324;-80
2023/05/17 04:41:37;;;;;;;17.77;8.43;;;10.70;72.80;;;;;;4941586;29;20260;-87
2023/05/17 04:44:03;;;;;;;16.27;8.77;;;10.80;71.00;;;;;;4942267;29;20200;-84
2023/05/17 04:46:29;;;;;;;17.23;8.30;;;10.80;71.20;;;;;;4940292;29;20220;-89
2023/05/17 04:48:55;;;;;;;15.27;7.90;;;11.00;64.00;;;;;;4941727;29;20195;-84
2023/05/17 04:51:21;;;;;;;18.97;8.13;;;11.00;62.10;;;;;;4941238;29;20255;-89
2023/05/17 04:53:47;;;;;;;14.07;8.13;;;10.80;63.80;;;;;;4940905;29;20682;-84
2023/05/17 04:56:13;;;;;;;19.50;8.43;;;10.70;70.60;;;;;;4943886;29;20177;-81
2023/05/17 04:58:39;;;;;;;15.97;8.93;;;10.90;72.90;;;;;;4940789;29;20185;-90
2023/05/17 05:01:05;;;;;;;19.50;8.93;;;11.00;64.50;;;;;;4938953;29;20193;-84
2023/05/17 05:03:31;;;;;;;14.17;8.80;;;11.10;57.60;;;;;;4938830;29;20231;-87
2023/05/17 05:05:57;;;;;;;16.53;9.27;;;11.20;50.20;;;;;;4939704;29;20208;-87
2023/05/17 05:08:25;;;;;;;17.83;9.40;;;11.20;48.50;;;;;;4939650;29;20188;-87
2023/05/17 05:10:50;;;;;;;20.03;9.33;;;11.10;48.20;;;;;;4940651;29;20173;-85
2023/05/17 05:13:16;;;;;;;13.73;8.23;;;11.20;48.80;;;;;;4940419;29;20177;-91
2023/05/17 05:15:42;;;;;;;15.10;8.47;;;11.30;51.00;;;;;;4938612;29;20185;-79
2023/05/17 05:18:08;;;;;;;18.67;9.80;;;11.40;52.00;;;;;;4939480;29;20207;-79
2023/05/17 05:20:33;;;;;;;18.87;9.43;;;11.50;52.30;;;;;;4939517;29;20547;-85
2023/05/17 05:23:02;;;;;;;15.43;7.60;;;11.30;48.70;;;;;;4938495;29;20177;-85
2023/05/17 05:25:31;;;;;;;16.60;8.73;;;11.40;50.70;;;;;;4938933;29;20698;-89
2023/05/17 05:27:57;;;;;;;21.27;8.57;;;11.50;47.10;;;;;;4959839;28;20162;-81
2023/05/17 05:30:24;;;;;;;14.30;7.70;;;11.60;44.70;;;;;;4953224;29;20175;-79
2023/05/17 05:32:50;;;;;;;12.73;7.73;;;11.60;37.50;;;;;;4948545;29;20184;-81
2023/05/17 05:35:18;;;;;;;17.13;8.30;;;11.80;35.20;;;;;;4939920;29;20181;-83
2023/05/17 05:37:45;;;;;;;13.53;7.50;;;11.50;35.80;;;;;;4939667;29;20165;-81
2023/05/17 05:40:13;;;;;;;16.00;8.33;;;11.60;39.80;;;;;;4938990;29;20177;-88
2023/05/17 05:42:38;;;;;;;13.47;7.63;;;11.60;40.30;;;;;;4939029;29;20165;-82
2023/05/17 05:45:04;;;;;;;17.50;8.23;;;11.60;36.30;;;;;;4947902;28;20218;-81
2023/05/17 05:47:30;;;;;;;18.90;8.03;;;11.50;36.50;;;;;;4960194;28;20200;-83
2023/05/17 05:49:56;;;;;;;15.37;7.77;;;11.40;43.60;;;;;;4953183;29;20173;-80
2023/05/17 05:52:22;;;;;;;15.13;7.47;;;11.40;48.20;;;;;;4946470;29;20661;-84
2023/05/17 05:54:51;;;;;;;15.47;8.30;;;11.50;46.90;;;;;;4946078;29;20158;-87
2023/05/17 05:57:17;;;;;;;15.23;7.63;;;11.70;42.80;;;;;;4958903;28;20168;-78
2023/05/17 05:59:44;;;;;;;16.27;7.73;;;11.80;38.30;;;;;;4959091;28;20180;-80
2023/05/17 06:02:10;;;;;;;14.03;7.53;;;11.50;41.40;;;;;;4955331;29;20173;-83
2023/05/17 06:04:37;;;;;;;16.40;8.00;;;11.50;46.60;;;;;;4944646;29;20219;-85
2023/05/17 06:07:03;;;;;;;15.67;8.63;;;11.60;48.10;;;;;;4947145;29;20268;-80
2023/05/17 06:09:28;;;;;;;15.57;7.77;;;11.80;49.60;;;;;;4949005;29;20181;-85
2023/05/17 06:11:54;;;;;;;20.50;8.80;;;11.80;47.30;;;;;;4952142;29;20195;-87
2023/05/17 06:14:23;;;;;;;21.00;8.67;;;11.90;43.40;;;;;;4962661;29;20188;-81
2023/05/17 06:16:52;;;;;;;15.37;7.70;;;12.10;40.10;;;;;;4969041;29;20173;-80
2023/05/17 06:19:19;;;;;;;16.83;8.03;;;12.20;36.50;;;;;;4965903;29;20156;-89
2023/05/17 06:22:01;;;;;;;18.43;8.07;;;11.80;36.80;;;;;;4954343;29;20275;-81
2023/05/17 06:24:28;;;;;;;17.33;8.50;;;12.20;41.80;;;;;;4961956;29;20185;-86
2023/05/17 06:26:57;;;;;;;16.63;7.60;;;12.20;39.20;;;;;;4956896;29;20275;-86
2023/05/17 06:29:23;;;;;;;15.33;8.23;;;12.40;39.70;;;;;;4946464;29;20172;-80
2023/05/17 06:31:48;;;;;;;17.77;8.67;;;12.40;35.70;;;;;;4947333;29;20240;-86
2023/05/17 06:34:15;;;;;;;20.03;7.90;;;12.60;32.70;;;;;;4946515;29;20531;-87
2023/05/17 06:36:41;;;;;;;11.90;7.40;;;12.80;30.50;;;;;;4940158;29;20171;-84
2023/05/17 06:39:07;;;;;;;15.93;6.80;;;12.80;28.60;;;;;;4950652;29;20196;-79
2023/05/17 06:41:33;;;;;;;18.57;6.40;;;12.60;27.30;;;;;;4947581;29;20202;-83
2023/05/17 06:43:59;;;;;;;16.50;6.70;;;12.50;37.00;;;;;;4950537;29;21176;-78
2023/05/17 06:46:25;;;;;;;22.30;7.00;;;12.50;35.70;;;;;;4955905;29;20207;-78
2023/05/17 06:48:52;;;;;;;15.93;6.33;;;12.50;40.50;;;;;;4954967;28;20222;-84
2023/05/17 06:51:18;;;;;;;14.33;6.47;;;12.60;40.10;;;;;;4954766;29;20186;-80
2023/05/17 06:53:50;;;;;;;17.60;5.70;;;12.70;34.70;;;;;;4955101;29;20172;-78
2023/05/17 06:56:21;;;;;;;16.90;6.03;;;12.70;32.80;;;;;;4948270;29;20176;-78
2023/05/17 06:58:47;;;;;;;18.60;5.93;;;12.60;39.20;;;;;;4947918;29;20265;-78
2023/05/17 07:01:13;;;;;;;15.27;5.63;;;12.60;38.40;;;;;;4940636;29;20191;-79
2023/05/17 07:03:42;;;;;;;12.23;5.77;;;12.80;37.80;;;;;;4977584;28;20221;-80
2023/05/17 07:06:09;;;;;;;15.90;5.27;;;12.80;33.30;;;;;;4941671;29;20213;-86
2023/05/17 07:08:35;;;;;;;11.80;4.43;;;12.90;32.60;;;;;;4926186;29;20241;-80
2023/05/17 07:14:24;;;;;;;16.93;5.17;;;12.60;26.60;;;;;;4926542;29;20292;-81
2023/05/17 07:16:49;;;;;;;11.07;4.47;;;12.60;27.60;;;;;;4950215;29;20197;-89
2023/05/17 07:19:18;;;;;;;11.27;5.00;;;12.60;25.70;;;;;;4943682;29;20195;-77
2023/05/17 07:21:44;;;;;;;15.30;4.60;;;12.60;20.60;;;;;;4944119;29;20161;-85
2023/05/17 07:24:12;;;;;;;9.83;5.03;;;12.70;17.50;;;;;;4973932;28;20590;-91
2023/05/17 07:26:38;;;;;;;9.50;4.87;;;12.70;20.30;;;;;;4943770;29;20287;-77
2023/05/17 07:29:03;;;;;;;17.67;5.33;;;12.80;12.20;;;;;;4938770;29;20586;-79
2023/05/17 07:31:30;;;;;;;15.00;5.17;;;12.90;9.90;;;;;;4937445;29;20189;-79
2023/05/17 07:33:57;;;;;;;15.40;5.90;;;12.80;7.30;;;;;;4940602;29;20661;-81
2023/05/17 07:36:22;;;;;;;13.47;6.10;;;12.90;10.40;;;;;;4931808;29;20222;-78
2023/05/17 07:38:50;;;;;;;13.07;6.00;;;12.80;13.00;;;;;;4939330;29;20633;-89
2023/05/17 07:41:20;;;;;;;15.23;7.17;;;12.90;15.10;;;;;;4936722;29;20737;-79
2023/05/17 07:43:46;;;;;;;12.03;5.87;;;13.00;10.50;;;;;;4939965;29;20180;-81
2023/05/17 07:46:11;;;;;;;19.17;6.97;;;13.00;9.40;;;;;;4937030;29;20709;-79
2023/05/17 07:48:37;;;;;;;14.87;6.70;;;13.00;10.60;;;;;;4941985;29;20277;-79
2023/05/17 07:51:20;;;;;;;16.17;7.47;;;13.20;10.70;;;;;;4940095;29;20192;-78
2023/05/17 07:53:46;;;;;;;13.07;7.17;;;13.10;5.30;;;;;;4932242;29;20265;-81
2023/05/17 07:56:15;;;;;;;12.27;7.03;;;13.10;1.00;;;;;;4924722;29;20213;-80
2023/05/17 07:58:43;;;;;;;20.13;10.67;;;13.30;1.00;;;;;;4927779;29;20223;-89
2023/05/17 08:01:09;;;;;;;14.17;6.97;;;13.60;4.30;;;;;;4945490;29;20207;-84
2023/05/17 08:03:35;;;;;;;15.23;7.43;;;13.70;1.00;;;;;;4947871;29;20266;-79
2023/05/17 08:06:08;;;;;;;11.63;6.20;;;13.70;1.00;;;;;;4942670;29;20236;-84
2023/05/17 08:08:34;;;;;;;13.07;5.90;;;13.70;1.00;;;;;;4939913;29;20181;-88
2023/05/17 08:11:00;;;;;;;14.30;5.80;;;13.70;1.00;;;;;;4939096;29;20196;-82
2023/05/17 08:13:27;;;;;;;11.07;5.47;;;13.90;1.00;;;;;;4951453;29;20219;-79
2023/05/17 08:15:53;;;;;;;13.27;5.83;;;14.20;1.00;;;;;;4957443;28;20180;-83
2023/05/17 08:18:26;;;;;;;11.03;4.80;;;14.20;1.00;;;;;;4953123;29;20186;-85
2023/05/17 08:21:42;;;;;;;12.70;5.20;;;14.10;1.00;;;;;;4943572;29;20187;-85
2023/05/17 08:24:08;;;;;;;10.53;5.27;;;14.10;1.00;;;;;;4945930;29;20185;-81
2023/05/17 08:26:34;;;;;;;10.40;5.20;;;14.40;1.00;;;;;;4947425;29;20279;-82
2023/05/17 08:29:01;;;;;;;11.00;4.80;;;14.30;1.00;;;;;;4979457;28;20326;-81
2023/05/17 08:31:28;;;;;;;14.47;4.87;;;14.30;1.00;;;;;;4985847;28;20165;-80
2023/05/17 08:33:59;;;;;;;13.60;5.07;;;14.20;1.00;;;;;;4981122;28;20209;-84
2023/05/17 08:36:27;;;;;;;10.00;4.80;;;14.20;1.00;;;;;;4942091;29;20196;-83
2023/05/17 08:38:53;;;;;;;12.27;4.97;;;14.30;1.00;;;;;;4928974;29;20181;-89
2023/05/17 08:41:22;;;;;;;11.27;4.60;;;14.30;1.00;;;;;;4936467;29;20200;-84
2023/05/17 08:47:11;;;;;;;10.47;4.60;;;14.10;1.00;;;;;;4939780;29;20231;-84
2023/05/17 08:49:38;;;;;;;12.83;5.07;;;14.10;1.00;;;;;;4938126;29;20200;-85
2023/05/17 08:52:08;;;;;;;9.23;4.37;;;14.10;1.00;;;;;;4939380;29;20192;-85
2023/05/17 08:54:36;;;;;;;12.17;4.70;;;14.10;1.00;;;;;;4939498;29;20180;-86
2023/05/17 08:57:05;;;;;;;10.53;4.20;;;14.30;1.00;;;;;;4939473;29;20167;-82
2023/05/17 08:59:34;;;;;;;11.37;4.27;;;14.30;1.00;;;;;;4937914;29;20186;-85
2023/05/17 09:02:00;;;;;;;8.37;3.80;;;14.20;1.00;;;;;;4937797;29;20196;-82
2023/05/17 09:04:28;;;;;;;9.40;4.20;;;14.20;1.00;;;;;;4935329;29;20177;-80
2023/05/17 09:06:54;;;;;;;10.17;4.03;;;14.30;1.00;;;;;;4937123;29;20246;-81
2023/05/17 09:09:20;;;;;;;10.37;3.37;;;14.30;1.00;;;;;;4936388;29;20215;-83
2023/05/17 09:11:46;;;;;;;8.93;3.63;;;14.30;1.00;;;;;;4936128;29;20274;-82
2023/05/17 09:14:16;;;;;;;7.07;3.20;;;14.40;1.00;;;;;;4938236;29;20644;-82
2023/05/17 09:16:42;;;;;;;9.00;3.73;;;14.40;1.00;;;;;;4938625;29;20177;-82
2023/05/17 09:19:15;;;;;;;8.20;3.40;;;14.40;1.00;;;;;;4938421;29;20576;-83
2023/05/17 09:21:45;;;;;;;12.53;3.83;;;14.30;1.00;;;;;;4936594;29;20180;-83
2023/05/17 09:24:12;;;;;;;7.87;3.30;;;14.30;1.00;;;;;;4938051;29;20262;-82
2023/05/17 09:26:42;;;;;;;7.93;3.00;;;14.30;1.00;;;;;;4938134;29;20215;-83
2023/05/17 09:29:13;;;;;;;10.40;3.77;;;14.30;1.00;;;;;;4937609;29;20705;-81
2023/05/17 09:31:40;;;;;;;7.90;2.97;;;14.40;1.00;;;;;;4936900;29;20202;-82
2023/05/17 09:34:06;;;;;;;13.03;3.67;;;14.50;1.00;;;;;;4936616;29;20648;-82
2023/05/17 09:36:34;;;;;;;10.83;3.67;;;14.50;1.00;;;;;;4936791;29;20183;-83
2023/05/17 09:39:06;;;;;;;6.60;2.70;;;14.60;1.00;;;;;;4937546;29;20189;-82
2023/05/17 09:41:39;;;;;;;11.43;3.43;;;14.60;1.00;;;;;;4936978;29;20190;-82
2023/05/17 09:44:10;;;;;;;6.87;2.37;;;14.70;1.00;;;;;;4936445;29;20179;-83
2023/05/17 09:46:40;;;;;;;8.47;2.77;;;14.70;1.00;;;;;;4936924;29;20247;-84
2023/05/17 09:49:07;;;;;;;6.77;2.90;;;14.80;1.00;;;;;;4937104;29;20202;-82
2023/05/17 09:51:43;;;;;;;9.80;3.30;;;15.00;1.00;;;;;;4939672;29;20193;-83
2023/05/17 09:54:10;;;;;;;8.63;2.97;;;15.30;1.00;;;;;;4945578;29;20176;-83
2023/05/17 09:56:37;;;;;;;9.57;3.10;;;15.50;1.00;;;;;;4940420;29;20251;-83
2023/05/17 09:59:10;;;;;;;7.87;2.40;;;15.60;1.00;;;;;;4938167;29;20177;-83
2023/05/17 10:01:41;;;;;;;7.03;2.47;;;15.70;1.00;;;;;;4958540;28;20212;-82
2023/05/17 10:04:12;;;;;;;9.23;3.07;;;15.50;1.00;;;;;;4957780;28;20208;-80
2023/05/17 10:06:43;;;;;;;13.23;3.63;;;15.30;1.00;;;;;;4940149;28;20209;-85
2023/05/17 10:09:25;;;;;;;9.07;2.47;;;15.20;1.00;;;;;;4938231;29;20629;-83
2023/05/17 10:11:53;;;;;;;8.23;3.00;;;15.50;1.00;;;;;;4938455;29;20264;-82
2023/05/17 10:14:25;;;;;;;9.30;3.00;;;15.50;99.90;;;;;;4937421;29;20480;-82
2023/05/17 10:16:53;;;;;;;4.40;1.90;;;15.40;99.90;;;;;;4938200;29;20681;-81
2023/05/17 10:19:20;;;;;;;8.43;2.43;;;15.40;99.90;;;;;;4937301;29;20212;-83
2023/05/17 10:21:51;;;;;;;6.00;2.30;;;15.20;99.90;;;;;;4937344;29;20227;-82
2023/05/17 10:24:20;;;;;;;8.77;2.30;;;15.10;99.90;;;;;;4937749;29;20189;-83
2023/05/17 10:26:51;;;;;;;6.60;2.67;;;15.20;99.90;;;;;;4938787;29;20220;-82
2023/05/17 10:29:19;;;;;;;10.20;3.40;;;15.30;99.90;;;;;;4942775;29;20176;-81
2023/05/17 10:31:46;;;;;;;7.90;2.77;;;15.30;99.90;;;;;;4940374;29;20211;-82
2023/05/17 10:34:14;;;;;;;8.50;3.00;;;15.50;99.90;;;;;;4937732;29;20268;-82
2023/05/17 10:36:42;;;;;;;8.57;2.97;;;15.50;99.90;;;;;;4938377;29;20188;-83
2023/05/17 10:39:09;;;;;;;7.67;2.73;;;15.60;99.90;;;;;;4938247;29;20175;-83
2023/05/17 10:41:45;;;;;;;8.40;2.57;;;15.40;99.90;;;;;;4939126;29;20184;-83
2023/05/17 10:44:15;;;;;;;8.87;2.97;;;15.30;99.90;;;;;;4989220;28;20157;-81
2023/05/17 10:46:54;;;;;;;9.70;2.60;;;15.40;99.90;;;;;;4963753;29;20218;-81
2023/05/17 10:49:19;;;;;;;5.73;2.40;;;15.60;99.90;;;;;;4966990;29;20172;-83
2023/05/17 10:51:55;;;;;;;8.40;2.57;;;15.80;99.90;;;;;;4956485;29;20187;-82
2023/05/17 10:54:38;;;;;;;8.20;2.43;;;15.80;99.90;;;;;;4957081;29;20219;-82
2023/05/17 10:57:06;;;;;;;7.07;2.33;;;15.60;99.90;;;;;;4956552;29;20641;-83
2023/05/17 10:59:32;;;;;;;7.33;2.60;;;15.60;99.90;;;;;;4954897;29;20176;-82
2023/05/17 11:02:06;;;;;;;9.53;2.60;;;15.60;99.90;;;;;;4966021;28;20221;-83
2023/05/17 11:04:37;;;;;;;11.03;3.30;;;15.80;99.90;;;;;;4960564;28;20260;-82
2023/05/17 11:07:18;;;;;;;7.57;3.03;;;15.90;99.90;;;;;;4954525;28;20219;-81
2023/05/17 11:09:59;;;;;;;8.60;2.83;;;16.00;99.90;;;;;;4942987;29;20157;-83
2023/05/17 11:12:41;;;;;;;8.40;2.40;;;15.90;99.90;;;;;;4936802;29;20203;-83
2023/05/17 11:15:12;;;;;;;9.10;2.60;;;15.70;99.90;;;;;;4938224;29;20169;-83
2023/05/17 11:17:49;;;;;;;7.77;2.37;;;15.90;99.90;;;;;;4944731;29;20236;-83
2023/05/17 11:20:15;;;;;;;9.70;2.67;;;15.90;99.90;;;;;;4954216;28;20205;-84
2023/05/17 11:22:42;;;;;;;7.67;2.30;;;15.90;99.90;;;;;;4955686;28;20259;-83
2023/05/17 11:25:13;;;;;;;8.97;2.40;;;16.00;89.20;;;;;;4954379;29;20172;-84
2023/05/17 11:27:47;;;;;;;6.43;2.10;;;16.10;13.50;;;;;;4954031;28;20267;-85
2023/05/17 11:30:30;;;;;;;6.97;2.43;;;16.00;1.00;;;;;;4954306;29;20177;-84
2023/05/17 11:33:00;;;;;;;8.50;2.50;;;15.80;99.90;;;;;;4954647;29;20304;-84
2023/05/17 11:35:37;;;;;;;7.77;2.53;;;16.00;1.00;;;;;;4955359;29;20180;-83
2023/05/17 11:38:16;;;;;;;10.33;2.40;;;16.20;96.10;;;;;;4954331;29;20658;-82
2023/05/17 11:40:43;;;;;;;6.33;2.40;;;16.30;47.50;;;;;;4954789;29;20231;-82
2023/05/17 11:43:17;;;;;;;7.73;2.57;;;16.40;10.10;;;;;;4955774;28;20168;-83
2023/05/17 11:45:49;;;;;;;5.13;2.17;;;16.40;1.00;;;;;;4953066;29;20333;-82
2023/05/17 11:48:16;;;;;;;6.57;2.10;;;16.50;1.00;;;;;;4948623;29;20204;-83
2023/05/17 11:50:43;;;;;;;7.43;2.17;;;16.60;99.90;;;;;;4977617;28;20173;-83
2023/05/17 11:53:09;;;;;;;6.50;2.17;;;16.40;1.00;;;;;;4966287;28;20157;-84
2023/05/17 11:55:40;;;;;;;5.00;1.57;;;16.30;99.90;;;;;;4953218;28;20189;-84
2023/05/17 11:58:11;;;;;;;5.63;1.90;;;16.10;1.00;;;;;;4938964;29;20186;-83
2023/05/17 12:00:39;;;;;;;6.40;2.07;;;16.40;1.00;;;;;;4940148;29;20177;-83
2023/05/17 12:03:20;;;;;;;7.77;1.93;;;16.50;99.90;;;;;;4939898;29;20197;-82
2023/05/17 12:05:48;;;;;;;7.07;2.40;;;16.50;66.00;;;;;;4937805;29;20679;-83
2023/05/17 12:08:20;;;;;;;5.57;1.93;;;16.60;1.00;;;;;;4939409;29;20176;-84
2023/05/17 12:10:49;;;;;;;6.80;2.10;;;16.60;1.00;;;;;;4957983;29;20249;-83
2023/05/17 12:13:15;;;;;;;5.07;2.00;;;16.60;99.90;;;;;;4940976;29;20712;-83
2023/05/17 12:15:47;;;;;;;7.00;2.27;;;16.70;1.00;;;;;;4933335;29;20185;-83
2023/05/17 12:18:15;;;;;;;7.50;2.00;;;16.70;1.00;;;;;;4921842;29;20277;-83
2023/05/17 12:20:58;;;;;;;3.43;1.10;;;16.50;99.90;;;;;;4932849;29;20196;-82
2023/05/17 12:23:29;;;;;;;6.23;1.90;;;16.70;1.00;;;;;;4940802;29;20205;-83
2023/05/17 12:26:10;;;;;;;5.23;1.50;;;16.70;99.90;;;;;;4941770;28;20229;-84
2023/05/17 12:28:38;;;;;;;7.33;1.90;;;16.50;99.90;;;;;;4933689;29;20175;-83
2023/05/17 12:31:10;;;;;;;5.53;1.70;;;16.50;1.00;;;;;;4970232;28;20178;-81
2023/05/17 12:33:39;;;;;;;7.10;1.87;;;16.50;99.90;;;;;;4971685;28;20186;-80
2023/05/17 12:36:10;;;;;;;5.20;2.03;;;16.70;99.90;;;;;;4971670;28;20181;-82
2023/05/17 12:38:40;;;;;;;6.23;1.93;;;16.90;99.90;;;;;;4956494;29;20169;-85
2023/05/17 12:41:08;;;;;;;4.53;1.90;;;16.80;1.00;;;;;;4973844;29;20169;-81
2023/05/17 12:43:37;;;;;;;5.70;1.63;;;16.60;1.00;;;;;;4968116;28;20260;-84
2023/05/17 12:46:13;;;;;;;5.00;1.60;;;16.50;1.00;;;;;;4970932;28;20516;-82
2023/05/17 12:48:40;;;;;;;3.77;1.60;;;16.30;99.90;;;;;;4971826;29;20216;-82
2023/05/17 12:51:15;;;;;;;5.97;1.87;;;16.50;99.90;;;;;;4960327;29;20272;-83
2023/05/17 12:53:41;;;;;;;3.97;1.60;;;16.60;1.00;;;;;;4973012;28;20184;-82
2023/05/17 12:56:13;;;;;;;4.73;1.33;;;16.60;99.90;;;;;;4944061;29;20660;-83
2023/05/17 12:58:38;;;;;;;4.87;1.40;;;16.70;99.90;;;;;;4941777;29;20196;-81
2023/05/17 13:01:13;;;;;;;3.87;1.40;;;16.70;99.90;;;;;;4939324;29;20177;-84